sensor_id;sensor_type;location;lat;lon;timestamp;pressure;altitude;pressure_sealevel;temperature;humidity
41102;BME280;26845;50.190;19.178;2022-10-17T00:00:38;99683.14;;;11.06;77.73
41102;BME280;26845;50.190;19.178;2022-10-17T00:03:06;99687.38;;;11.00;77.83
41102;BME280;26845;50.190;19.178;2022-10-17T00:05:42;99695.72;;;11.00;77.93
41102;BME280;26845;50.190;19.178;2022-10-17T00:08:12;99691.83;;;11.01;77.95
41102;BME280;26845;50.190;19.178;2022-10-17T00:10:40;99693.50;;;11.00;77.86
41102;BME280;26845;50.190;19.178;2022-10-17T00:13:07;99687.97;;;10.97;78.02
41102;BME280;26845;50.190;19.178;2022-10-17T00:15:35;99680.20;;;10.97;78.02
41102;BME280;26845;50.190;19.178;2022-10-17T00:18:02;99684.11;;;10.96;78.20
41102;BME280;26845;50.190;19.178;2022-10-17T00:20:30;99685.50;;;10.96;78.26
41102;BME280;26845;50.190;19.178;2022-10-17T00:22:58;99695.80;;;10.93;77.99
41102;BME280;26845;50.190;19.178;2022-10-17T00:25:26;99694.48;;;10.90;78.03
41102;BME280;26845;50.190;19.178;2022-10-17T00:27:53;99696.72;;;10.88;78.01
41102;BME280;26845;50.190;19.178;2022-10-17T00:30:19;99700.06;;;10.88;78.02
41102;BME280;26845;50.190;19.178;2022-10-17T00:32:46;99698.70;;;10.85;78.02
41102;BME280;26845;50.190;19.178;2022-10-17T00:35:13;99702.37;;;10.80;78.04
41102;BME280;26845;50.190;19.178;2022-10-17T00:37:39;99700.41;;;10.81;77.97
41102;BME280;26845;50.190;19.178;2022-10-17T00:40:07;99710.56;;;10.69;78.00
41102;BME280;26845;50.190;19.178;2022-10-17T00:42:35;99713.50;;;10.56;77.96
41102;BME280;26845;50.190;19.178;2022-10-17T00:47:42;99710.97;;;10.57;78.59
41102;BME280;26845;50.190;19.178;2022-10-17T00:50:12;99712.91;;;10.60;78.45
41102;BME280;26845;50.190;19.178;2022-10-17T00:52:39;99715.69;;;10.60;78.34
41102;BME280;26845;50.190;19.178;2022-10-17T00:55:13;99712.59;;;10.61;78.54
41102;BME280;26845;50.190;19.178;2022-10-17T00:57:45;99710.61;;;10.64;78.65
41102;BME280;26845;50.190;19.178;2022-10-17T01:00:13;99709.79;;;10.64;78.50
41102;BME280;26845;50.190;19.178;2022-10-17T01:02:42;99707.83;;;10.64;78.51
41102;BME280;26845;50.190;19.178;2022-10-17T01:05:10;99698.67;;;10.64;78.62
41102;BME280;26845;50.190;19.178;2022-10-17T01:07:40;99702.27;;;10.64;78.68
41102;BME280;26845;50.190;19.178;2022-10-17T01:10:08;99703.97;;;10.63;78.59
41102;BME280;26845;50.190;19.178;2022-10-17T01:12:40;99705.75;;;10.53;78.26
41102;BME280;26845;50.190;19.178;2022-10-17T01:15:32;99702.83;;;10.40;78.25
41102;BME280;26845;50.190;19.178;2022-10-17T01:18:50;99702.09;;;10.26;78.42
41102;BME280;26845;50.190;19.178;2022-10-17T01:21:47;99707.16;;;10.22;78.83
41102;BME280;26845;50.190;19.178;2022-10-17T01:24:36;99707.67;;;10.24;78.86
41102;BME280;26845;50.190;19.178;2022-10-17T01:27:33;99702.09;;;10.26;79.01
41102;BME280;26845;50.190;19.178;2022-10-17T01:33:02;99706.02;;;10.28;78.70
41102;BME280;26845;50.190;19.178;2022-10-17T01:35:41;99710.73;;;10.25;78.94
41102;BME280;26845;50.190;19.178;2022-10-17T01:38:20;99704.05;;;10.26;79.12
41102;BME280;26845;50.190;19.178;2022-10-17T01:41:05;99707.92;;;10.30;79.24
41102;BME280;26845;50.190;19.178;2022-10-17T01:43:47;99706.53;;;10.30;79.10
41102;BME280;26845;50.190;19.178;2022-10-17T01:46:25;99711.55;;;10.30;79.10
41102;BME280;26845;50.190;19.178;2022-10-17T01:48:59;99716.00;;;10.29;79.05
41102;BME280;26845;50.190;19.178;2022-10-17T01:51:45;99715.73;;;10.28;78.98
41102;BME280;26845;50.190;19.178;2022-10-17T01:54:31;99705.44;;;10.26;78.94
41102;BME280;26845;50.190;19.178;2022-10-17T01:57:03;99711.86;;;10.21;78.62
41102;BME280;26845;50.190;19.178;2022-10-17T01:59:40;99710.61;;;10.08;78.66
41102;BME280;26845;50.190;19.178;2022-10-17T02:02:08;99717.35;;;10.00;79.06
41102;BME280;26845;50.190;19.178;2022-10-17T02:04:36;99713.19;;;10.00;79.29
41102;BME280;26845;50.190;19.178;2022-10-17T02:07:11;99708.20;;;9.99;79.08
41102;BME280;26845;50.190;19.178;2022-10-17T02:09:38;99717.95;;;9.94;78.99
41102;BME280;26845;50.190;19.178;2022-10-17T02:20:58;99733.79;;;9.94;79.21
41102;BME280;26845;50.190;19.178;2022-10-17T02:26:29;99723.80;;;9.90;79.06
41102;BME280;26845;50.190;19.178;2022-10-17T02:29:16;99720.52;;;9.85;79.12
41102;BME280;26845;50.190;19.178;2022-10-17T02:31:52;99723.01;;;9.84;79.33
41102;BME280;26845;50.190;19.178;2022-10-17T02:34:28;99714.97;;;9.85;79.45
41102;BME280;26845;50.190;19.178;2022-10-17T02:36:59;99717.18;;;9.86;79.52
41102;BME280;26845;50.190;19.178;2022-10-17T02:39:29;99719.37;;;9.89;79.56
41102;BME280;26845;50.190;19.178;2022-10-17T02:41:59;99720.48;;;9.90;79.60
41102;BME280;26845;50.190;19.178;2022-10-17T02:44:28;99716.27;;;9.93;79.67
41102;BME280;26845;50.190;19.178;2022-10-17T02:47:02;99726.28;;;9.94;79.50
41102;BME280;26845;50.190;19.178;2022-10-17T02:49:37;99722.68;;;9.94;79.53
41102;BME280;26845;50.190;19.178;2022-10-17T02:55:02;99726.58;;;9.90;79.32
41102;BME280;26845;50.190;19.178;2022-10-17T02:58:06;99718.81;;;9.89;79.33
41102;BME280;26845;50.190;19.178;2022-10-17T03:00:13;99715.21;;;9.89;79.34
41102;BME280;26845;50.190;19.178;2022-10-17T03:02:50;99719.70;;;9.85;79.27
41102;BME280;26845;50.190;19.178;2022-10-17T03:05:19;99718.59;;;9.83;79.58
41102;BME280;26845;50.190;19.178;2022-10-17T03:07:47;99724.70;;;9.83;79.52
41102;BME280;26845;50.190;19.178;2022-10-17T03:10:14;99729.95;;;9.84;79.49
41102;BME280;26845;50.190;19.178;2022-10-17T03:12:41;99734.11;;;9.84;79.49
41102;BME280;26845;50.190;19.178;2022-10-17T03:15:09;99738.84;;;9.84;79.41
41102;BME280;26845;50.190;19.178;2022-10-17T03:17:39;99741.05;;;9.84;79.37
41102;BME280;26845;50.190;19.178;2022-10-17T03:20:06;99752.47;;;9.83;79.42
41102;BME280;26845;50.190;19.178;2022-10-17T03:22:33;99747.77;;;9.78;79.15
41102;BME280;26845;50.190;19.178;2022-10-17T03:25:00;99751.95;;;9.76;79.28
41102;BME280;26845;50.190;19.178;2022-10-17T03:27:26;99745.61;;;9.70;79.02
41102;BME280;26845;50.190;19.178;2022-10-17T03:29:53;99761.55;;;9.54;78.75
41102;BME280;26845;50.190;19.178;2022-10-17T03:32:19;99763.58;;;9.36;79.21
41102;BME280;26845;50.190;19.178;2022-10-17T03:34:46;99761.38;;;9.30;79.38
41102;BME280;26845;50.190;19.178;2022-10-17T03:37:13;99762.52;;;9.27;79.48
41102;BME280;26845;50.190;19.178;2022-10-17T03:39:39;99763.07;;;9.29;79.85
41102;BME280;26845;50.190;19.178;2022-10-17T03:42:06;99763.88;;;9.32;79.96
41102;BME280;26845;50.190;19.178;2022-10-17T03:44:32;99759.70;;;9.37;80.09
41102;BME280;26845;50.190;19.178;2022-10-17T03:46:59;99762.16;;;9.41;80.07
41102;BME280;26845;50.190;19.178;2022-10-17T03:49:27;99763.80;;;9.44;80.12
41102;BME280;26845;50.190;19.178;2022-10-17T03:51:54;99762.41;;;9.47;80.06
41102;BME280;26845;50.190;19.178;2022-10-17T03:54:24;99757.41;;;9.49;79.94
41102;BME280;26845;50.190;19.178;2022-10-17T03:56:50;99757.41;;;9.49;79.83
41102;BME280;26845;50.190;19.178;2022-10-17T03:59:17;99769.34;;;9.47;79.82
41102;BME280;26845;50.190;19.178;2022-10-17T04:01:44;99772.41;;;9.48;79.84
41102;BME280;26845;50.190;19.178;2022-10-17T04:04:11;99776.57;;;9.48;79.75
41102;BME280;26845;50.190;19.178;2022-10-17T04:06:37;99781.27;;;9.48;79.62
41102;BME280;26845;50.190;19.178;2022-10-17T04:09:05;99785.47;;;9.45;79.46
41102;BME280;26845;50.190;19.178;2022-10-17T04:11:32;99784.95;;;9.35;79.31
41102;BME280;26845;50.190;19.178;2022-10-17T04:13:59;99778.34;;;9.26;79.39
41102;BME280;26845;50.190;19.178;2022-10-17T04:16:26;99782.50;;;9.26;79.69
41102;BME280;26845;50.190;19.178;2022-10-17T04:18:54;99786.92;;;9.27;79.88
41102;BME280;26845;50.190;19.178;2022-10-17T04:21:24;99781.92;;;9.29;79.94
41102;BME280;26845;50.190;19.178;2022-10-17T04:23:55;99791.08;;;9.27;79.86
41102;BME280;26845;50.190;19.178;2022-10-17T04:26:23;99782.50;;;9.26;79.80
41102;BME280;26845;50.190;19.178;2022-10-17T04:28:51;99784.16;;;9.24;79.81
41102;BME280;26845;50.190;19.178;2022-10-17T04:31:20;99783.33;;;9.24;79.93
41102;BME280;26845;50.190;19.178;2022-10-17T04:33:47;99782.52;;;9.21;79.81
41102;BME280;26845;50.190;19.178;2022-10-17T04:36:17;99790.02;;;9.20;79.70
41102;BME280;26845;50.190;19.178;2022-10-17T04:38:45;99789.19;;;9.17;79.67
41102;BME280;26845;50.190;19.178;2022-10-17T04:41:15;99795.31;;;9.14;79.62
41102;BME280;26845;50.190;19.178;2022-10-17T04:43:42;99786.73;;;9.11;79.53
41102;BME280;26845;50.190;19.178;2022-10-17T04:46:12;99791.19;;;8.99;79.04
41102;BME280;26845;50.190;19.178;2022-10-17T04:48:40;99789.05;;;8.75;79.08
41102;BME280;26845;50.190;19.178;2022-10-17T04:51:13;99792.69;;;8.61;79.39
41102;BME280;26845;50.190;19.178;2022-10-17T04:53:42;99798.23;;;8.58;80.74
41102;BME280;26845;50.190;19.178;2022-10-17T04:56:12;99798.43;;;8.90;81.51
41102;BME280;26845;50.190;19.178;2022-10-17T04:58:42;99794.28;;;8.85;80.39
41102;BME280;26845;50.190;19.178;2022-10-17T05:01:13;99804.84;;;8.77;80.00
41102;BME280;26845;50.190;19.178;2022-10-17T05:03:41;99796.84;;;8.63;79.84
41102;BME280;26845;50.190;19.178;2022-10-17T05:06:19;99793.80;;;8.57;80.19
41102;BME280;26845;50.190;19.178;2022-10-17T05:08:45;99787.14;;;8.58;80.48
41102;BME280;26845;50.190;19.178;2022-10-17T05:11:24;99786.31;;;8.63;80.59
41102;BME280;26845;50.190;19.178;2022-10-17T05:13:59;99792.68;;;8.66;80.59
41102;BME280;26845;50.190;19.178;2022-10-17T05:16:27;99786.02;;;8.67;80.68
41102;BME280;26845;50.190;19.178;2022-10-17T05:18:56;99791.30;;;8.63;80.20
41102;BME280;26845;50.190;19.178;2022-10-17T05:21:25;99790.74;;;8.56;80.38
41102;BME280;26845;50.190;19.178;2022-10-17T05:23:55;99798.49;;;8.59;80.56
41102;BME280;26845;50.190;19.178;2022-10-17T05:26:22;99805.98;;;8.61;80.68
41102;BME280;26845;50.190;19.178;2022-10-17T05:28:50;99809.58;;;8.62;80.48
41102;BME280;26845;50.190;19.178;2022-10-17T05:31:17;99808.75;;;8.64;80.78
41102;BME280;26845;50.190;19.178;2022-10-17T05:33:44;99816.23;;;8.68;80.81
41102;BME280;26845;50.190;19.178;2022-10-17T05:36:11;99815.67;;;8.71;80.79
41102;BME280;26845;50.190;19.178;2022-10-17T05:38:38;99818.15;;;8.75;80.81
41102;BME280;26845;50.190;19.178;2022-10-17T05:41:05;99817.59;;;8.76;80.83
41102;BME280;26845;50.190;19.178;2022-10-17T05:43:32;99825.63;;;8.80;80.76
41102;BME280;26845;50.190;19.178;2022-10-17T05:46:02;99820.62;;;8.82;80.82
41102;BME280;26845;50.190;19.178;2022-10-17T05:48:30;99827.84;;;8.83;80.75
41102;BME280;26845;50.190;19.178;2022-10-17T05:50:59;99825.34;;;8.84;80.71
41102;BME280;26845;50.190;19.178;2022-10-17T05:53:32;99826.72;;;8.84;80.70
41102;BME280;26845;50.190;19.178;2022-10-17T05:56:03;99836.42;;;8.87;80.84
41102;BME280;26845;50.190;19.178;2022-10-17T05:58:32;99836.42;;;8.89;80.99
41102;BME280;26845;50.190;19.178;2022-10-17T06:01:02;99838.89;;;8.93;81.08
41102;BME280;26845;50.190;19.178;2022-10-17T06:03:30;99840.83;;;8.98;81.20
41102;BME280;26845;50.190;19.178;2022-10-17T06:06:06;99844.98;;;9.03;81.24
41102;BME280;26845;50.190;19.178;2022-10-17T06:08:35;99843.30;;;9.07;81.34
41102;BME280;26845;50.190;19.178;2022-10-17T06:11:02;99841.91;;;9.12;81.46
41102;BME280;26845;50.190;19.178;2022-10-17T06:13:32;99841.06;;;9.19;81.44
41102;BME280;26845;50.190;19.178;2022-10-17T06:16:01;99847.70;;;9.21;81.37
41102;BME280;26845;50.190;19.178;2022-10-17T06:18:30;99848.52;;;9.24;81.48
41102;BME280;26845;50.190;19.178;2022-10-17T06:21:07;99854.31;;;9.30;81.52
41102;BME280;26845;50.190;19.178;2022-10-17T06:23:32;99858.20;;;9.34;81.53
41102;BME280;26845;50.190;19.178;2022-10-17T06:26:00;99859.84;;;9.38;81.31
41102;BME280;26845;50.190;19.178;2022-10-17T06:28:28;99857.64;;;9.32;81.14
41102;BME280;26845;50.190;19.178;2022-10-17T06:30:55;99866.80;;;9.30;81.34
41102;BME280;26845;50.190;19.178;2022-10-17T06:33:24;99869.05;;;9.31;81.69
41102;BME280;26845;50.190;19.178;2022-10-17T06:35:54;99869.30;;;9.37;82.26
41102;BME280;26845;50.190;19.178;2022-10-17T06:38:21;99877.88;;;9.40;81.92
41102;BME280;26845;50.190;19.178;2022-10-17T06:40:51;99873.97;;;9.44;82.32
41102;BME280;26845;50.190;19.178;2022-10-17T06:43:20;99876.72;;;9.52;82.48
41102;BME280;26845;50.190;19.178;2022-10-17T06:45:46;99880.28;;;9.65;82.86
41102;BME280;26845;50.190;19.178;2022-10-17T06:48:13;99877.99;;;9.77;83.03
41102;BME280;26845;50.190;19.178;2022-10-17T06:50:40;99881.86;;;9.79;82.51
41102;BME280;26845;50.190;19.178;2022-10-17T06:53:07;99876.58;;;9.85;82.95
41102;BME280;26845;50.190;19.178;2022-10-17T06:55:33;99882.61;;;9.97;83.23
41102;BME280;26845;50.190;19.178;2022-10-17T06:58:00;99879.48;;;10.09;83.27
41102;BME280;26845;50.190;19.178;2022-10-17T07:00:27;99873.85;;;10.22;83.38
41102;BME280;26845;50.190;19.178;2022-10-17T07:02:54;99877.69;;;10.33;83.49
41102;BME280;26845;50.190;19.178;2022-10-17T07:05:20;99887.59;;;10.47;83.51
41102;BME280;26845;50.190;19.178;2022-10-17T07:07:47;99880.86;;;10.53;83.27
41102;BME280;26845;50.190;19.178;2022-10-17T07:10:14;99891.09;;;10.58;83.62
41102;BME280;26845;50.190;19.178;2022-10-17T07:12:40;99890.77;;;10.67;84.07
41102;BME280;26845;50.190;19.178;2022-10-17T07:15:10;99889.61;;;11.00;85.55
41102;BME280;26845;50.190;19.178;2022-10-17T07:17:37;99899.16;;;11.18;84.74
41102;BME280;26845;50.190;19.178;2022-10-17T07:20:04;99898.85;;;11.46;85.28
41102;BME280;26845;50.190;19.178;2022-10-17T07:22:31;99900.11;;;11.59;84.94
41102;BME280;26845;50.190;19.178;2022-10-17T07:24:58;99894.08;;;11.73;84.93
41102;BME280;26845;50.190;19.178;2022-10-17T07:27:25;99898.27;;;11.95;85.04
41102;BME280;26845;50.190;19.178;2022-10-17T07:29:51;99897.44;;;12.15;84.94
41102;BME280;26845;50.190;19.178;2022-10-17T07:32:18;99906.28;;;12.39;85.07
41102;BME280;26845;50.190;19.178;2022-10-17T07:34:44;99902.34;;;12.59;84.80
41102;BME280;26845;50.190;19.178;2022-10-17T07:37:11;99905.04;;;12.80;84.92
41102;BME280;26845;50.190;19.178;2022-10-17T07:39:38;99901.06;;;13.00;84.95
41102;BME280;26845;50.190;19.178;2022-10-17T07:42:05;99897.56;;;13.25;84.89
41102;BME280;26845;50.190;19.178;2022-10-17T07:44:33;99898.82;;;13.49;84.73
41102;BME280;26845;50.190;19.178;2022-10-17T07:47:00;99904.56;;;13.69;84.52
41102;BME280;26845;50.190;19.178;2022-10-17T07:49:27;99901.23;;;13.94;84.59
41102;BME280;26845;50.190;19.178;2022-10-17T07:51:54;99901.53;;;14.18;84.34
41102;BME280;26845;50.190;19.178;2022-10-17T07:54:21;99899.73;;;14.47;84.11
41102;BME280;26845;50.190;19.178;2022-10-17T07:56:47;99900.66;;;14.79;84.14
41102;BME280;26845;50.190;19.178;2022-10-17T07:59:17;99895.34;;;15.11;84.07
41102;BME280;26845;50.190;19.178;2022-10-17T08:01:44;99902.61;;;15.43;83.83
41102;BME280;26845;50.190;19.178;2022-10-17T08:04:11;99899.15;;;15.78;83.63
41102;BME280;26845;50.190;19.178;2022-10-17T08:06:38;99907.13;;;16.10;83.18
41102;BME280;26845;50.190;19.178;2022-10-17T08:09:05;99898.77;;;16.45;83.01
41102;BME280;26845;50.190;19.178;2022-10-17T08:11:36;99905.06;;;16.77;82.88
41102;BME280;26845;50.190;19.178;2022-10-17T08:14:01;99905.67;;;17.08;82.64
41102;BME280;26845;50.190;19.178;2022-10-17T08:16:28;99906.16;;;17.43;82.23
41102;BME280;26845;50.190;19.178;2022-10-17T08:18:55;99902.19;;;17.67;81.74
41102;BME280;26845;50.190;19.178;2022-10-17T08:21:21;99901.98;;;17.96;81.25
41102;BME280;26845;50.190;19.178;2022-10-17T08:23:48;99898.31;;;18.25;81.17
41102;BME280;26845;50.190;19.178;2022-10-17T08:26:15;99899.06;;;18.55;80.35
41102;BME280;26845;50.190;19.178;2022-10-17T08:28:45;99902.98;;;18.84;80.08
41102;BME280;26845;50.190;19.178;2022-10-17T08:31:14;99902.16;;;19.17;79.94
41102;BME280;26845;50.190;19.178;2022-10-17T08:33:47;99904.84;;;19.52;79.55
41102;BME280;26845;50.190;19.178;2022-10-17T08:36:17;99906.16;;;19.86;78.97
41102;BME280;26845;50.190;19.178;2022-10-17T08:38:48;99915.44;;;20.17;78.78
41102;BME280;26845;50.190;19.178;2022-10-17T08:44:32;99906.73;;;20.75;77.30
41102;BME280;26845;50.190;19.178;2022-10-17T08:47:02;99916.87;;;21.04;76.61
41102;BME280;26845;50.190;19.178;2022-10-17T08:49:38;99916.64;;;21.25;76.58
41102;BME280;26845;50.190;19.178;2022-10-17T08:58:22;99911.40;;;22.03;74.92
41102;BME280;26845;50.190;19.178;2022-10-17T09:06:58;99911.64;;;22.94;73.41
41102;BME280;26845;50.190;19.178;2022-10-17T09:13:12;99903.85;;;23.39;72.38
41102;BME280;26845;50.190;19.178;2022-10-17T09:18:31;99905.64;;;23.80;70.17
41102;BME280;26845;50.190;19.178;2022-10-17T09:24:21;99903.64;;;24.20;68.94
41102;BME280;26845;50.190;19.178;2022-10-17T09:26:47;99898.45;;;24.39;68.50
41102;BME280;26845;50.190;19.178;2022-10-17T09:29:24;99902.48;;;24.38;68.25
41102;BME280;26845;50.190;19.178;2022-10-17T09:31:59;99904.62;;;24.58;68.15
41102;BME280;26845;50.190;19.178;2022-10-17T09:34:28;99906.58;;;24.84;67.61
41102;BME280;26845;50.190;19.178;2022-10-17T09:36:59;99898.49;;;25.03;66.89
41102;BME280;26845;50.190;19.178;2022-10-17T09:39:27;99905.52;;;25.30;65.60
41102;BME280;26845;50.190;19.178;2022-10-17T09:41:59;99900.38;;;25.43;65.69
41102;BME280;26845;50.190;19.178;2022-10-17T09:44:36;99899.98;;;25.65;65.30
41102;BME280;26845;50.190;19.178;2022-10-17T09:47:28;99907.13;;;25.89;64.90
41102;BME280;26845;50.190;19.178;2022-10-17T09:49:57;99903.33;;;26.22;64.72
41102;BME280;26845;50.190;19.178;2022-10-17T09:52:32;99907.81;;;26.51;64.09
41102;BME280;26845;50.190;19.178;2022-10-17T09:55:17;99905.86;;;26.69;63.83
41102;BME280;26845;50.190;19.178;2022-10-17T10:00:28;99908.81;;;26.87;61.80
41102;BME280;26845;50.190;19.178;2022-10-17T10:03:20;99914.53;;;26.94;61.53
41102;BME280;26845;50.190;19.178;2022-10-17T10:05:58;99911.01;;;26.80;57.23
41102;BME280;26845;50.190;19.178;2022-10-17T10:08:33;99913.39;;;26.36;59.38
41102;BME280;26845;50.190;19.178;2022-10-17T10:11:05;99908.16;;;26.45;59.50
41102;BME280;26845;50.190;19.178;2022-10-17T10:13:34;99898.05;;;26.55;58.95
41102;BME280;26845;50.190;19.178;2022-10-17T10:18:57;99906.01;;;26.28;57.76
41102;BME280;26845;50.190;19.178;2022-10-17T10:21:25;99901.50;;;26.51;58.77
41102;BME280;26845;50.190;19.178;2022-10-17T10:26:47;99906.78;;;26.91;57.10
41102;BME280;26845;50.190;19.178;2022-10-17T10:32:11;99903.25;;;26.74;56.13
41102;BME280;26845;50.190;19.178;2022-10-17T10:37:48;99901.32;;;26.99;55.18
41102;BME280;26845;50.190;19.178;2022-10-17T10:40:53;99901.94;;;27.02;55.00
41102;BME280;26845;50.190;19.178;2022-10-17T10:46:18;99897.89;;;27.07;54.12
41102;BME280;26845;50.190;19.178;2022-10-17T10:48:55;99889.80;;;27.16;53.69
41102;BME280;26845;50.190;19.178;2022-10-17T10:54:21;99890.83;;;27.32;53.46
41102;BME280;26845;50.190;19.178;2022-10-17T10:56:52;99891.08;;;27.47;49.62
41102;BME280;26845;50.190;19.178;2022-10-17T10:59:36;99892.40;;;26.62;50.28
41102;BME280;26845;50.190;19.178;2022-10-17T11:04:51;99886.53;;;26.41;51.06
41102;BME280;26845;50.190;19.178;2022-10-17T11:13:27;99884.16;;;25.88;49.64
41102;BME280;26845;50.190;19.178;2022-10-17T11:18:54;99875.98;;;25.86;51.12
41102;BME280;26845;50.190;19.178;2022-10-17T11:24:23;99881.18;;;25.53;48.04
41102;BME280;26845;50.190;19.178;2022-10-17T11:27:00;99880.09;;;25.68;49.89
41102;BME280;26845;50.190;19.178;2022-10-17T11:29:33;99878.16;;;26.03;50.76
41102;BME280;26845;50.190;19.178;2022-10-17T11:32:19;99883.92;;;26.45;50.32
41102;BME280;26845;50.190;19.178;2022-10-17T11:34:55;99882.09;;;26.78;48.22
41102;BME280;26845;50.190;19.178;2022-10-17T11:37:38;99882.16;;;26.96;49.15
41102;BME280;26845;50.190;19.178;2022-10-17T11:40:20;99869.94;;;26.99;47.97
41102;BME280;26845;50.190;19.178;2022-10-17T11:42:57;99867.52;;;27.05;50.17
41102;BME280;26845;50.190;19.178;2022-10-17T11:45:34;99867.41;;;27.36;49.14
41102;BME280;26845;50.190;19.178;2022-10-17T11:48:17;99874.75;;;27.30;47.49
41102;BME280;26845;50.190;19.178;2022-10-17T11:51:07;99874.64;;;27.01;48.26
41102;BME280;26845;50.190;19.178;2022-10-17T11:59:56;99871.37;;;26.99;47.73
41102;BME280;26845;50.190;19.178;2022-10-17T12:05:42;99860.50;;;27.66;47.05
41102;BME280;26845;50.190;19.178;2022-10-17T12:11:39;99862.16;;;27.88;47.10
41102;BME280;26845;50.190;19.178;2022-10-17T12:17:29;99857.84;;;28.17;47.50
41102;BME280;26845;50.190;19.178;2022-10-17T12:23:02;99845.73;;;28.46;47.55
41102;BME280;26845;50.190;19.178;2022-10-17T12:25:30;99846.63;;;28.80;47.47
41102;BME280;26845;50.190;19.178;2022-10-17T12:28:15;99846.97;;;28.96;46.94
41102;BME280;26845;50.190;19.178;2022-10-17T12:31:02;99847.48;;;28.73;46.29
41102;BME280;26845;50.190;19.178;2022-10-17T12:33:34;99835.95;;;28.36;44.86
41102;BME280;26845;50.190;19.178;2022-10-17T12:49:53;99840.80;;;28.57;45.42
41102;BME280;26845;50.190;19.178;2022-10-17T12:52:25;99835.11;;;28.54;46.15
41102;BME280;26845;50.190;19.178;2022-10-17T12:55:08;99831.63;;;28.58;43.63
41102;BME280;26845;50.190;19.178;2022-10-17T13:00:32;99829.38;;;28.61;45.38
41102;BME280;26845;50.190;19.178;2022-10-17T13:03:10;99826.47;;;28.68;45.75
41102;BME280;26845;50.190;19.178;2022-10-17T13:05:46;99831.66;;;28.91;45.61
41102;BME280;26845;50.190;19.178;2022-10-17T13:08:30;99826.23;;;28.74;44.41
41102;BME280;26845;50.190;19.178;2022-10-17T13:10:59;99829.23;;;28.35;41.95
41102;BME280;26845;50.190;19.178;2022-10-17T13:16:35;99839.11;;;27.98;44.21
41102;BME280;26845;50.190;19.178;2022-10-17T13:19:10;99831.13;;;28.05;43.61
41102;BME280;26845;50.190;19.178;2022-10-17T13:24:37;99835.25;;;27.89;43.43
41102;BME280;26845;50.190;19.178;2022-10-17T13:27:29;99832.36;;;27.96;43.18
41102;BME280;26845;50.190;19.178;2022-10-17T13:29:56;99830.54;;;27.98;43.30
41102;BME280;26845;50.190;19.178;2022-10-17T13:32:24;99826.00;;;28.11;43.61
41102;BME280;26845;50.190;19.178;2022-10-17T13:35:14;99834.16;;;28.16;43.52
41102;BME280;26845;50.190;19.178;2022-10-17T13:37:44;99823.16;;;28.08;43.26
41102;BME280;26845;50.190;19.178;2022-10-17T13:40:14;99817.45;;;28.15;44.11
41102;BME280;26845;50.190;19.178;2022-10-17T13:42:44;99819.05;;;28.19;43.67
41102;BME280;26845;50.190;19.178;2022-10-17T13:45:18;99820.25;;;28.25;44.18
41102;BME280;26845;50.190;19.178;2022-10-17T13:47:50;99817.02;;;28.23;43.58
41102;BME280;26845;50.190;19.178;2022-10-17T13:50:23;99814.55;;;28.22;43.72
41102;BME280;26845;50.190;19.178;2022-10-17T13:58:50;99820.27;;;28.29;44.25
41102;BME280;26845;50.190;19.178;2022-10-17T14:01:19;99816.97;;;28.38;45.01
41102;BME280;26845;50.190;19.178;2022-10-17T14:03:47;99811.45;;;28.42;43.92
41102;BME280;26845;50.190;19.178;2022-10-17T14:09:05;99811.63;;;28.40;44.25
41102;BME280;26845;50.190;19.178;2022-10-17T14:11:41;99810.02;;;28.42;44.56
41102;BME280;26845;50.190;19.178;2022-10-17T14:14:18;99814.53;;;28.43;44.24
41102;BME280;26845;50.190;19.178;2022-10-17T14:16:47;99815.53;;;28.45;44.20
41102;BME280;26845;50.190;19.178;2022-10-17T14:19:26;99811.45;;;28.42;43.81
41102;BME280;26845;50.190;19.178;2022-10-17T14:21:54;99814.53;;;28.33;43.60
41102;BME280;26845;50.190;19.178;2022-10-17T14:24:28;99807.02;;;28.16;44.12
41102;BME280;26845;50.190;19.178;2022-10-17T14:26:58;99818.69;;;27.99;44.31
41102;BME280;26845;50.190;19.178;2022-10-17T14:29:31;99816.26;;;27.98;44.06
41102;BME280;26845;50.190;19.178;2022-10-17T14:32:06;99820.11;;;27.99;44.27
41102;BME280;26845;50.190;19.178;2022-10-17T14:34:39;99816.84;;;27.97;44.51
41102;BME280;26845;50.190;19.178;2022-10-17T14:37:11;99812.77;;;27.95;44.33
41102;BME280;26845;50.190;19.178;2022-10-17T14:39:40;99811.98;;;27.87;44.84
41102;BME280;26845;50.190;19.178;2022-10-17T14:42:16;99810.92;;;27.75;44.66
41102;BME280;26845;50.190;19.178;2022-10-17T14:44:39;99817.89;;;27.67;43.94
41102;BME280;26845;50.190;19.178;2022-10-17T14:47:06;99812.98;;;27.56;44.62
41102;BME280;26845;50.190;19.178;2022-10-17T14:49:39;99812.59;;;27.44;44.66
41102;BME280;26845;50.190;19.178;2022-10-17T14:54:47;99814.99;;;27.17;44.62
41102;BME280;26845;50.190;19.178;2022-10-17T14:57:24;99818.17;;;27.01;45.00
41102;BME280;26845;50.190;19.178;2022-10-17T14:59:54;99818.37;;;26.87;45.68
41102;BME280;26845;50.190;19.178;2022-10-17T15:02:23;99812.63;;;26.73;45.30
41102;BME280;26845;50.190;19.178;2022-10-17T15:04:52;99815.00;;;26.57;45.40
41102;BME280;26845;50.190;19.178;2022-10-17T15:07:20;99818.98;;;26.41;45.62
41102;BME280;26845;50.190;19.178;2022-10-17T15:09:50;99813.98;;;26.24;45.45
41102;BME280;26845;50.190;19.178;2022-10-17T15:12:22;99809.84;;;26.07;45.52
41102;BME280;26845;50.190;19.178;2022-10-17T15:14:50;99811.17;;;25.93;45.58
41102;BME280;26845;50.190;19.178;2022-10-17T15:17:21;99815.50;;;25.76;45.95
41102;BME280;26845;50.190;19.178;2022-10-17T15:19:56;99805.61;;;25.59;45.97
41102;BME280;26845;50.190;19.178;2022-10-17T15:22:27;99805.44;;;25.41;46.02
41102;BME280;26845;50.190;19.178;2022-10-17T15:24:52;99814.62;;;25.24;45.97
41102;BME280;26845;50.190;19.178;2022-10-17T15:27:22;99813.03;;;25.09;46.20